sensor_id;sensor_type;location;lat;lon;timestamp;P1;durP1;ratioP1;P2;durP2;ratioP2
75044;SDS011;63614;56.026;35.960;2023-09-19T00:00:42;14.32;;;9.23;;
75044;SDS011;63614;56.026;35.960;2023-09-19T00:03:09;17.98;;;8.95;;
75044;SDS011;63614;56.026;35.960;2023-09-19T00:08:09;21.05;;;9.02;;
75044;SDS011;63614;56.026;35.960;2023-09-19T00:10:35;15.07;;;9.88;;
75044;SDS011;63614;56.026;35.960;2023-09-19T00:13:04;15.38;;;8.90;;
75044;SDS011;63614;56.026;35.960;2023-09-19T00:15:39;13.02;;;8.63;;
75044;SDS011;63614;56.026;35.960;2023-09-19T00:18:14;17.10;;;8.73;;
75044;SDS011;63614;56.026;35.960;2023-09-19T00:20:41;16.92;;;8.60;;
75044;SDS011;63614;56.026;35.960;2023-09-19T00:23:07;17.17;;;8.25;;
75044;SDS011;63614;56.026;35.960;2023-09-19T00:25:37;18.38;;;8.00;;
75044;SDS011;63614;56.026;35.960;2023-09-19T00:28:03;18.83;;;8.30;;
75044;SDS011;63614;56.026;35.960;2023-09-19T00:30:30;12.73;;;8.37;;
75044;SDS011;63614;56.026;35.960;2023-09-19T00:32:56;14.17;;;8.53;;
75044;SDS011;63614;56.026;35.960;2023-09-19T00:35:22;11.95;;;7.95;;
75044;SDS011;63614;56.026;35.960;2023-09-19T00:37:54;13.95;;;7.97;;
75044;SDS011;63614;56.026;35.960;2023-09-19T00:40:21;14.68;;;8.73;;
75044;SDS011;63614;56.026;35.960;2023-09-19T00:42:47;12.70;;;8.88;;
75044;SDS011;63614;56.026;35.960;2023-09-19T00:45:15;18.88;;;9.10;;
75044;SDS011;63614;56.026;35.960;2023-09-19T00:47:49;14.55;;;8.85;;
75044;SDS011;63614;56.026;35.960;2023-09-19T00:50:18;14.55;;;8.57;;
75044;SDS011;63614;56.026;35.960;2023-09-19T00:52:48;15.75;;;9.05;;
75044;SDS011;63614;56.026;35.960;2023-09-19T00:57:45;14.98;;;8.25;;
75044;SDS011;63614;56.026;35.960;2023-09-19T01:00:11;15.80;;;8.45;;
75044;SDS011;63614;56.026;35.960;2023-09-19T01:02:41;15.68;;;9.55;;
75044;SDS011;63614;56.026;35.960;2023-09-19T01:05:12;17.48;;;9.63;;
75044;SDS011;63614;56.026;35.960;2023-09-19T01:07:39;14.20;;;9.25;;
75044;SDS011;63614;56.026;35.960;2023-09-19T01:10:14;14.20;;;9.25;;
75044;SDS011;63614;56.026;35.960;2023-09-19T01:15:38;14.88;;;9.90;;
75044;SDS011;63614;56.026;35.960;2023-09-19T01:20:57;20.30;;;10.65;;
75044;SDS011;63614;56.026;35.960;2023-09-19T01:29:33;19.65;;;12.15;;
75044;SDS011;63614;56.026;35.960;2023-09-19T01:32:24;19.95;;;12.18;;
75044;SDS011;63614;56.026;35.960;2023-09-19T01:34:53;21.30;;;12.93;;
75044;SDS011;63614;56.026;35.960;2023-09-19T01:37:23;21.48;;;13.27;;
75044;SDS011;63614;56.026;35.960;2023-09-19T01:40:03;20.48;;;13.73;;
75044;SDS011;63614;56.026;35.960;2023-09-19T01:42:50;24.10;;;13.35;;
75044;SDS011;63614;56.026;35.960;2023-09-19T01:54:12;26.40;;;15.15;;
75044;SDS011;63614;56.026;35.960;2023-09-19T01:56:45;29.40;;;15.25;;
75044;SDS011;63614;56.026;35.960;2023-09-19T01:59:24;27.77;;;15.50;;
75044;SDS011;63614;56.026;35.960;2023-09-19T02:01:54;31.75;;;15.48;;
75044;SDS011;63614;56.026;35.960;2023-09-19T02:04:20;30.85;;;15.60;;
75044;SDS011;63614;56.026;35.960;2023-09-19T02:06:46;28.27;;;15.70;;
75044;SDS011;63614;56.026;35.960;2023-09-19T02:09:15;25.92;;;14.68;;
75044;SDS011;63614;56.026;35.960;2023-09-19T02:11:41;22.77;;;14.15;;
75044;SDS011;63614;56.026;35.960;2023-09-19T02:14:07;23.13;;;13.85;;
75044;SDS011;63614;56.026;35.960;2023-09-19T02:16:35;24.92;;;13.80;;
75044;SDS011;63614;56.026;35.960;2023-09-19T02:19:01;23.00;;;13.10;;
75044;SDS011;63614;56.026;35.960;2023-09-19T02:21:31;21.92;;;13.65;;
75044;SDS011;63614;56.026;35.960;2023-09-19T02:23:58;24.25;;;13.63;;
75044;SDS011;63614;56.026;35.960;2023-09-19T02:26:24;20.58;;;12.82;;
75044;SDS011;63614;56.026;35.960;2023-09-19T02:28:50;28.63;;;12.93;;
75044;SDS011;63614;56.026;35.960;2023-09-19T02:31:16;23.50;;;13.27;;
75044;SDS011;63614;56.026;35.960;2023-09-19T02:33:42;17.92;;;12.50;;
75044;SDS011;63614;56.026;35.960;2023-09-19T02:36:09;21.40;;;12.25;;
75044;SDS011;63614;56.026;35.960;2023-09-19T02:38:35;20.10;;;12.63;;
75044;SDS011;63614;56.026;35.960;2023-09-19T02:41:01;26.73;;;12.25;;
75044;SDS011;63614;56.026;35.960;2023-09-19T02:43:27;24.92;;;12.90;;
75044;SDS011;63614;56.026;35.960;2023-09-19T02:45:53;26.15;;;12.90;;
75044;SDS011;63614;56.026;35.960;2023-09-19T02:48:20;21.05;;;13.07;;
75044;SDS011;63614;56.026;35.960;2023-09-19T02:50:46;23.33;;;13.63;;
75044;SDS011;63614;56.026;35.960;2023-09-19T02:53:15;20.35;;;13.32;;
75044;SDS011;63614;56.026;35.960;2023-09-19T02:55:41;26.70;;;13.15;;
75044;SDS011;63614;56.026;35.960;2023-09-19T03:00:36;22.95;;;12.70;;
75044;SDS011;63614;56.026;35.960;2023-09-19T03:03:02;21.40;;;12.93;;
75044;SDS011;63614;56.026;35.960;2023-09-19T03:05:28;24.55;;;12.70;;
75044;SDS011;63614;56.026;35.960;2023-09-19T03:07:57;22.38;;;13.10;;
75044;SDS011;63614;56.026;35.960;2023-09-19T03:10:26;25.77;;;13.50;;
75044;SDS011;63614;56.026;35.960;2023-09-19T03:12:54;23.55;;;13.30;;
75044;SDS011;63614;56.026;35.960;2023-09-19T03:15:20;21.67;;;13.35;;
75044;SDS011;63614;56.026;35.960;2023-09-19T03:17:49;21.67;;;13.30;;
75044;SDS011;63614;56.026;35.960;2023-09-19T03:20:19;22.70;;;13.55;;
75044;SDS011;63614;56.026;35.960;2023-09-19T03:22:47;22.75;;;14.38;;
75044;SDS011;63614;56.026;35.960;2023-09-19T03:25:15;23.85;;;14.18;;
75044;SDS011;63614;56.026;35.960;2023-09-19T03:27:45;25.23;;;14.63;;
75044;SDS011;63614;56.026;35.960;2023-09-19T03:30:12;27.45;;;15.27;;
75044;SDS011;63614;56.026;35.960;2023-09-19T03:32:44;29.95;;;16.13;;
75044;SDS011;63614;56.026;35.960;2023-09-19T03:35:16;31.05;;;17.48;;
75044;SDS011;63614;56.026;35.960;2023-09-19T03:37:43;38.05;;;17.70;;
75044;SDS011;63614;56.026;35.960;2023-09-19T03:40:11;34.95;;;17.27;;
75044;SDS011;63614;56.026;35.960;2023-09-19T03:42:41;32.97;;;17.63;;
75044;SDS011;63614;56.026;35.960;2023-09-19T03:45:10;30.08;;;18.15;;
75044;SDS011;63614;56.026;35.960;2023-09-19T03:47:47;30.95;;;17.42;;
75044;SDS011;63614;56.026;35.960;2023-09-19T03:50:15;39.28;;;18.50;;
75044;SDS011;63614;56.026;35.960;2023-09-19T03:52:43;38.60;;;18.65;;
75044;SDS011;63614;56.026;35.960;2023-09-19T03:55:09;33.70;;;17.13;;
75044;SDS011;63614;56.026;35.960;2023-09-19T04:00:03;31.13;;;17.00;;
75044;SDS011;63614;56.026;35.960;2023-09-19T04:02:39;33.85;;;18.58;;
75044;SDS011;63614;56.026;35.960;2023-09-19T04:05:05;36.95;;;18.17;;
75044;SDS011;63614;56.026;35.960;2023-09-19T04:07:32;40.30;;;18.83;;
75044;SDS011;63614;56.026;35.960;2023-09-19T04:09:58;37.63;;;19.38;;
75044;SDS011;63614;56.026;35.960;2023-09-19T04:12:23;35.90;;;20.45;;
75044;SDS011;63614;56.026;35.960;2023-09-19T04:14:49;34.53;;;21.27;;
75044;SDS011;63614;56.026;35.960;2023-09-19T04:17:16;42.00;;;21.83;;
75044;SDS011;63614;56.026;35.960;2023-09-19T04:19:42;37.92;;;21.38;;
75044;SDS011;63614;56.026;35.960;2023-09-19T04:22:08;46.20;;;23.30;;
75044;SDS011;63614;56.026;35.960;2023-09-19T04:24:35;38.90;;;21.42;;
75044;SDS011;63614;56.026;35.960;2023-09-19T04:27:01;38.88;;;21.27;;
75044;SDS011;63614;56.026;35.960;2023-09-19T04:29:27;38.47;;;19.95;;
75044;SDS011;63614;56.026;35.960;2023-09-19T04:31:55;35.35;;;20.02;;
75044;SDS011;63614;56.026;35.960;2023-09-19T04:34:23;41.83;;;19.83;;
75044;SDS011;63614;56.026;35.960;2023-09-19T04:36:50;38.88;;;20.40;;
75044;SDS011;63614;56.026;35.960;2023-09-19T04:39:16;35.33;;;19.95;;
75044;SDS011;63614;56.026;35.960;2023-09-19T04:41:43;42.95;;;21.08;;
75044;SDS011;63614;56.026;35.960;2023-09-19T04:44:10;35.83;;;20.33;;
75044;SDS011;63614;56.026;35.960;2023-09-19T04:46:36;45.20;;;21.98;;
75044;SDS011;63614;56.026;35.960;2023-09-19T04:49:02;40.80;;;21.10;;
75044;SDS011;63614;56.026;35.960;2023-09-19T04:51:28;38.80;;;21.63;;
75044;SDS011;63614;56.026;35.960;2023-09-19T04:53:58;38.63;;;20.35;;
75044;SDS011;63614;56.026;35.960;2023-09-19T04:56:24;34.25;;;20.65;;
75044;SDS011;63614;56.026;35.960;2023-09-19T04:58:50;39.10;;;20.80;;
75044;SDS011;63614;56.026;35.960;2023-09-19T05:01:15;34.63;;;21.40;;
75044;SDS011;63614;56.026;35.960;2023-09-19T05:03:41;41.55;;;21.23;;
75044;SDS011;63614;56.026;35.960;2023-09-19T05:06:07;34.97;;;20.98;;
75044;SDS011;63614;56.026;35.960;2023-09-19T05:08:33;39.38;;;21.33;;
75044;SDS011;63614;56.026;35.960;2023-09-19T05:11:01;38.70;;;21.42;;
75044;SDS011;63614;56.026;35.960;2023-09-19T05:13:27;38.58;;;20.83;;
75044;SDS011;63614;56.026;35.960;2023-09-19T05:15:53;35.80;;;20.80;;
75044;SDS011;63614;56.026;35.960;2023-09-19T05:18:19;35.55;;;20.38;;
75044;SDS011;63614;56.026;35.960;2023-09-19T05:20:44;34.53;;;20.90;;
75044;SDS011;63614;56.026;35.960;2023-09-19T05:23:10;32.83;;;20.77;;
75044;SDS011;63614;56.026;35.960;2023-09-19T05:25:39;38.63;;;19.92;;
75044;SDS011;63614;56.026;35.960;2023-09-19T05:28:06;35.67;;;18.58;;
75044;SDS011;63614;56.026;35.960;2023-09-19T05:30:33;37.45;;;18.77;;
75044;SDS011;63614;56.026;35.960;2023-09-19T05:33:04;35.22;;;18.95;;
75044;SDS011;63614;56.026;35.960;2023-09-19T05:35:30;39.35;;;18.70;;
75044;SDS011;63614;56.026;35.960;2023-09-19T05:37:57;29.23;;;17.90;;
75044;SDS011;63614;56.026;35.960;2023-09-19T05:40:24;27.50;;;17.13;;
75044;SDS011;63614;56.026;35.960;2023-09-19T05:45:16;31.25;;;17.70;;
75044;SDS011;63614;56.026;35.960;2023-09-19T05:47:51;30.10;;;17.25;;
75044;SDS011;63614;56.026;35.960;2023-09-19T05:50:21;39.40;;;18.38;;
75044;SDS011;63614;56.026;35.960;2023-09-19T05:52:53;30.87;;;18.07;;
75044;SDS011;63614;56.026;35.960;2023-09-19T05:55:21;37.60;;;18.60;;
75044;SDS011;63614;56.026;35.960;2023-09-19T05:57:51;31.48;;;19.20;;
75044;SDS011;63614;56.026;35.960;2023-09-19T06:00:21;35.70;;;19.98;;
75044;SDS011;63614;56.026;35.960;2023-09-19T06:02:51;30.67;;;18.85;;
75044;SDS011;63614;56.026;35.960;2023-09-19T06:05:23;31.17;;;17.88;;
75044;SDS011;63614;56.026;35.960;2023-09-19T06:07:53;37.03;;;18.85;;
75044;SDS011;63614;56.026;35.960;2023-09-19T06:10:19;33.67;;;18.67;;
75044;SDS011;63614;56.026;35.960;2023-09-19T06:12:49;39.35;;;17.88;;
75044;SDS011;63614;56.026;35.960;2023-09-19T06:15:15;33.33;;;19.15;;
75044;SDS011;63614;56.026;35.960;2023-09-19T06:17:52;35.58;;;19.00;;
75044;SDS011;63614;56.026;35.960;2023-09-19T06:20:22;28.88;;;18.45;;
75044;SDS011;63614;56.026;35.960;2023-09-19T06:22:51;40.90;;;18.85;;
75044;SDS011;63614;56.026;35.960;2023-09-19T06:25:17;36.05;;;18.90;;
75044;SDS011;63614;56.026;35.960;2023-09-19T06:27:48;38.00;;;19.23;;
75044;SDS011;63614;56.026;35.960;2023-09-19T06:30:18;37.38;;;19.30;;
75044;SDS011;63614;56.026;35.960;2023-09-19T06:32:44;35.70;;;18.02;;
75044;SDS011;63614;56.026;35.960;2023-09-19T06:35:11;38.22;;;19.05;;
75044;SDS011;63614;56.026;35.960;2023-09-19T06:37:38;35.63;;;19.60;;
75044;SDS011;63614;56.026;35.960;2023-09-19T06:40:11;39.10;;;20.10;;
75044;SDS011;63614;56.026;35.960;2023-09-19T06:45:09;37.17;;;19.45;;
75044;SDS011;63614;56.026;35.960;2023-09-19T06:47:43;37.38;;;20.85;;
75044;SDS011;63614;56.026;35.960;2023-09-19T06:50:16;35.83;;;18.60;;
75044;SDS011;63614;56.026;35.960;2023-09-19T06:52:48;31.08;;;18.63;;
75044;SDS011;63614;56.026;35.960;2023-09-19T06:55:16;30.15;;;19.73;;
75044;SDS011;63614;56.026;35.960;2023-09-19T06:57:44;39.15;;;19.52;;
75044;SDS011;63614;56.026;35.960;2023-09-19T07:00:11;33.00;;;18.90;;
75044;SDS011;63614;56.026;35.960;2023-09-19T07:02:42;36.85;;;19.77;;
75044;SDS011;63614;56.026;35.960;2023-09-19T07:05:08;34.75;;;19.02;;
75044;SDS011;63614;56.026;35.960;2023-09-19T07:07:35;33.63;;;18.67;;
75044;SDS011;63614;56.026;35.960;2023-09-19T07:10:04;40.90;;;18.70;;
75044;SDS011;63614;56.026;35.960;2023-09-19T07:12:36;35.95;;;17.80;;
75044;SDS011;63614;56.026;35.960;2023-09-19T07:15:02;36.42;;;17.33;;
75044;SDS011;63614;56.026;35.960;2023-09-19T07:17:31;37.28;;;18.08;;
75044;SDS011;63614;56.026;35.960;2023-09-19T07:19:58;37.47;;;17.95;;
75044;SDS011;63614;56.026;35.960;2023-09-19T07:22:26;29.20;;;16.92;;
75044;SDS011;63614;56.026;35.960;2023-09-19T07:24:52;36.63;;;17.10;;
75044;SDS011;63614;56.026;35.960;2023-09-19T07:27:18;34.95;;;16.77;;
75044;SDS011;63614;56.026;35.960;2023-09-19T07:29:44;30.13;;;16.50;;
75044;SDS011;63614;56.026;35.960;2023-09-19T07:32:10;30.35;;;17.10;;
75044;SDS011;63614;56.026;35.960;2023-09-19T07:34:37;34.40;;;16.85;;
75044;SDS011;63614;56.026;35.960;2023-09-19T07:37:06;30.95;;;15.93;;
75044;SDS011;63614;56.026;35.960;2023-09-19T07:39:31;27.08;;;16.10;;
75044;SDS011;63614;56.026;35.960;2023-09-19T07:41:57;33.75;;;17.15;;
75044;SDS011;63614;56.026;35.960;2023-09-19T07:44:23;30.58;;;16.90;;
75044;SDS011;63614;56.026;35.960;2023-09-19T07:46:51;30.00;;;16.20;;
75044;SDS011;63614;56.026;35.960;2023-09-19T07:49:17;26.63;;;14.80;;
75044;SDS011;63614;56.026;35.960;2023-09-19T07:51:44;27.08;;;15.10;;
75044;SDS011;63614;56.026;35.960;2023-09-19T07:54:13;23.75;;;15.10;;
75044;SDS011;63614;56.026;35.960;2023-09-19T07:56:40;27.95;;;14.57;;
75044;SDS011;63614;56.026;35.960;2023-09-19T07:59:06;22.98;;;13.85;;
75044;SDS011;63614;56.026;35.960;2023-09-19T08:01:32;25.30;;;13.43;;
75044;SDS011;63614;56.026;35.960;2023-09-19T08:03:58;24.20;;;12.37;;
75044;SDS011;63614;56.026;35.960;2023-09-19T08:06:24;22.30;;;12.35;;
75044;SDS011;63614;56.026;35.960;2023-09-19T08:08:52;22.58;;;12.80;;
75044;SDS011;63614;56.026;35.960;2023-09-19T08:13:46;22.98;;;12.27;;
75044;SDS011;63614;56.026;35.960;2023-09-19T08:16:15;28.30;;;12.52;;
75044;SDS011;63614;56.026;35.960;2023-09-19T08:18:41;23.33;;;11.68;;
75044;SDS011;63614;56.026;35.960;2023-09-19T08:23:37;23.02;;;12.15;;
75044;SDS011;63614;56.026;35.960;2023-09-19T08:26:07;25.40;;;12.27;;
75044;SDS011;63614;56.026;35.960;2023-09-19T08:31:02;29.27;;;11.65;;
75044;SDS011;63614;56.026;35.960;2023-09-19T08:33:32;17.75;;;10.25;;
75044;SDS011;63614;56.026;35.960;2023-09-19T08:35:59;16.88;;;10.77;;
75044;SDS011;63614;56.026;35.960;2023-09-19T08:38:26;24.88;;;11.02;;
75044;SDS011;63614;56.026;35.960;2023-09-19T08:41:04;19.92;;;10.48;;
75044;SDS011;63614;56.026;35.960;2023-09-19T08:43:31;18.40;;;10.82;;
75044;SDS011;63614;56.026;35.960;2023-09-19T08:46:14;19.75;;;10.90;;
75044;SDS011;63614;56.026;35.960;2023-09-19T08:48:45;16.73;;;10.70;;
75044;SDS011;63614;56.026;35.960;2023-09-19T08:51:26;19.95;;;10.15;;
75044;SDS011;63614;56.026;35.960;2023-09-19T08:54:08;17.08;;;9.77;;
75044;SDS011;63614;56.026;35.960;2023-09-19T08:56:38;22.17;;;9.80;;
75044;SDS011;63614;56.026;35.960;2023-09-19T08:59:06;19.25;;;9.73;;
75044;SDS011;63614;56.026;35.960;2023-09-19T09:01:38;16.85;;;9.02;;
75044;SDS011;63614;56.026;35.960;2023-09-19T09:04:10;21.60;;;9.60;;
75044;SDS011;63614;56.026;35.960;2023-09-19T09:06:39;14.20;;;8.95;;
75044;SDS011;63614;56.026;35.960;2023-09-19T09:09:06;16.67;;;8.73;;
75044;SDS011;63614;56.026;35.960;2023-09-19T09:11:36;17.35;;;8.75;;
75044;SDS011;63614;56.026;35.960;2023-09-19T09:14:08;15.95;;;8.50;;
75044;SDS011;63614;56.026;35.960;2023-09-19T09:16:37;14.32;;;8.10;;
75044;SDS011;63614;56.026;35.960;2023-09-19T09:19:04;19.55;;;8.55;;
75044;SDS011;63614;56.026;35.960;2023-09-19T09:21:30;17.63;;;8.48;;
75044;SDS011;63614;56.026;35.960;2023-09-19T09:26:54;18.55;;;8.30;;
75044;SDS011;63614;56.026;35.960;2023-09-19T09:29:44;15.00;;;8.30;;
75044;SDS011;63614;56.026;35.960;2023-09-19T09:32:26;14.25;;;8.02;;
75044;SDS011;63614;56.026;35.960;2023-09-19T09:35:00;16.92;;;8.20;;
75044;SDS011;63614;56.026;35.960;2023-09-19T09:37:30;13.20;;;7.90;;
75044;SDS011;63614;56.026;35.960;2023-09-19T09:40:04;15.20;;;8.10;;
75044;SDS011;63614;56.026;35.960;2023-09-19T09:42:40;13.85;;;8.00;;
75044;SDS011;63614;56.026;35.960;2023-09-19T09:45:31;16.58;;;8.30;;
75044;SDS011;63614;56.026;35.960;2023-09-19T09:48:00;17.60;;;9.00;;
75044;SDS011;63614;56.026;35.960;2023-09-19T09:50:45;18.98;;;8.10;;
75044;SDS011;63614;56.026;35.960;2023-09-19T09:53:28;14.07;;;8.52;;
75044;SDS011;63614;56.026;35.960;2023-09-19T09:58:50;15.88;;;7.95;;
75044;SDS011;63614;56.026;35.960;2023-09-19T10:01:24;16.23;;;7.60;;
75044;SDS011;63614;56.026;35.960;2023-09-19T10:04:12;14.60;;;7.73;;
75044;SDS011;63614;56.026;35.960;2023-09-19T10:06:58;15.75;;;7.65;;
75044;SDS011;63614;56.026;35.960;2023-09-19T10:09:44;17.55;;;7.65;;
75044;SDS011;63614;56.026;35.960;2023-09-19T10:12:13;15.85;;;7.85;;
75044;SDS011;63614;56.026;35.960;2023-09-19T10:14:50;12.55;;;7.30;;
75044;SDS011;63614;56.026;35.960;2023-09-19T10:17:22;13.90;;;7.63;;
75044;SDS011;63614;56.026;35.960;2023-09-19T10:19:55;13.32;;;7.40;;
75044;SDS011;63614;56.026;35.960;2023-09-19T10:22:32;14.77;;;7.13;;
75044;SDS011;63614;56.026;35.960;2023-09-19T10:25:04;21.98;;;7.25;;
75044;SDS011;63614;56.026;35.960;2023-09-19T10:27:37;10.57;;;6.72;;
75044;SDS011;63614;56.026;35.960;2023-09-19T10:30:09;14.02;;;6.88;;
75044;SDS011;63614;56.026;35.960;2023-09-19T10:32:42;12.70;;;7.13;;
75044;SDS011;63614;56.026;35.960;2023-09-19T10:35:15;17.73;;;7.38;;
75044;SDS011;63614;56.026;35.960;2023-09-19T10:37:49;14.73;;;6.85;;
75044;SDS011;63614;56.026;35.960;2023-09-19T10:40:21;16.48;;;6.70;;
75044;SDS011;63614;56.026;35.960;2023-09-19T10:43:03;12.93;;;6.88;;
75044;SDS011;63614;56.026;35.960;2023-09-19T10:45:35;9.52;;;6.20;;
75044;SDS011;63614;56.026;35.960;2023-09-19T10:48:07;13.55;;;6.00;;
75044;SDS011;63614;56.026;35.960;2023-09-19T10:50:44;18.33;;;6.72;;
75044;SDS011;63614;56.026;35.960;2023-09-19T10:56:02;13.32;;;6.65;;
75044;SDS011;63614;56.026;35.960;2023-09-19T10:58:45;18.35;;;7.05;;
75044;SDS011;63614;56.026;35.960;2023-09-19T11:01:42;11.55;;;6.50;;
75044;SDS011;63614;56.026;35.960;2023-09-19T11:04:44;17.05;;;6.75;;
75044;SDS011;63614;56.026;35.960;2023-09-19T11:07:14;15.68;;;6.65;;
75044;SDS011;63614;56.026;35.960;2023-09-19T11:09:50;13.00;;;6.57;;
75044;SDS011;63614;56.026;35.960;2023-09-19T11:15:07;12.38;;;6.65;;
75044;SDS011;63614;56.026;35.960;2023-09-19T11:17:38;13.32;;;6.47;;
75044;SDS011;63614;56.026;35.960;2023-09-19T11:28:33;8.93;;;6.50;;
75044;SDS011;63614;56.026;35.960;2023-09-19T11:43:07;8.98;;;6.35;;
75044;SDS011;63614;56.026;35.960;2023-09-19T11:46:11;12.30;;;7.18;;
75044;SDS011;63614;56.026;35.960;2023-09-19T11:48:35;18.35;;;6.60;;
75044;SDS011;63614;56.026;35.960;2023-09-19T11:51:09;11.82;;;6.70;;
75044;SDS011;63614;56.026;35.960;2023-09-19T11:53:47;16.83;;;6.72;;
75044;SDS011;63614;56.026;35.960;2023-09-19T11:56:20;15.35;;;6.88;;
75044;SDS011;63614;56.026;35.960;2023-09-19T11:58:50;13.85;;;6.22;;
75044;SDS011;63614;56.026;35.960;2023-09-19T12:01:25;13.70;;;6.47;;
75044;SDS011;63614;56.026;35.960;2023-09-19T12:04:03;14.27;;;6.60;;
75044;SDS011;63614;56.026;35.960;2023-09-19T12:06:30;12.68;;;6.28;;
75044;SDS011;63614;56.026;35.960;2023-09-19T12:09:04;8.27;;;5.97;;
75044;SDS011;63614;56.026;35.960;2023-09-19T12:11:41;12.25;;;5.28;;
75044;SDS011;63614;56.026;35.960;2023-09-19T12:14:10;13.75;;;6.32;;
75044;SDS011;63614;56.026;35.960;2023-09-19T12:16:39;15.05;;;6.20;;
75044;SDS011;63614;56.026;35.960;2023-09-19T12:19:40;12.30;;;5.97;;
75044;SDS011;63614;56.026;35.960;2023-09-19T12:22:02;12.82;;;6.20;;
75044;SDS011;63614;56.026;35.960;2023-09-19T12:24:34;8.15;;;5.53;;
75044;SDS011;63614;56.026;35.960;2023-09-19T12:27:04;15.95;;;6.07;;
75044;SDS011;63614;56.026;35.960;2023-09-19T12:29:44;11.27;;;5.68;;
75044;SDS011;63614;56.026;35.960;2023-09-19T12:32:16;17.48;;;5.70;;
75044;SDS011;63614;56.026;35.960;2023-09-19T12:34:52;10.98;;;5.47;;
75044;SDS011;63614;56.026;35.960;2023-09-19T12:37:21;12.75;;;5.90;;
75044;SDS011;63614;56.026;35.960;2023-09-19T12:39:51;11.93;;;5.60;;
75044;SDS011;63614;56.026;35.960;2023-09-19T12:42:22;17.67;;;5.88;;
75044;SDS011;63614;56.026;35.960;2023-09-19T12:44:50;13.30;;;5.57;;
75044;SDS011;63614;56.026;35.960;2023-09-19T12:47:31;17.65;;;5.07;;
75044;SDS011;63614;56.026;35.960;2023-09-19T12:50:07;15.18;;;5.25;;
75044;SDS011;63614;56.026;35.960;2023-09-19T12:52:47;12.18;;;5.95;;
75044;SDS011;63614;56.026;35.960;2023-09-19T12:58:15;12.50;;;5.47;;
75044;SDS011;63614;56.026;35.960;2023-09-19T13:00:46;13.23;;;5.55;;
75044;SDS011;63614;56.026;35.960;2023-09-19T13:03:18;13.32;;;6.57;;
75044;SDS011;63614;56.026;35.960;2023-09-19T13:08:34;13.27;;;5.50;;
75044;SDS011;63614;56.026;35.960;2023-09-19T13:11:22;10.13;;;5.75;;
75044;SDS011;63614;56.026;35.960;2023-09-19T13:13:50;13.73;;;5.95;;
75044;SDS011;63614;56.026;35.960;2023-09-19T13:19:46;15.45;;;5.93;;
75044;SDS011;63614;56.026;35.960;2023-09-19T13:22:36;13.95;;;5.90;;
75044;SDS011;63614;56.026;35.960;2023-09-19T13:25:11;11.57;;;5.70;;
75044;SDS011;63614;56.026;35.960;2023-09-19T13:27:47;9.90;;;6.30;;
75044;SDS011;63614;56.026;35.960;2023-09-19T13:30:22;14.35;;;6.47;;
75044;SDS011;63614;56.026;35.960;2023-09-19T13:33:17;15.35;;;5.97;;
75044;SDS011;63614;56.026;35.960;2023-09-19T13:35:57;9.43;;;6.05;;
75044;SDS011;63614;56.026;35.960;2023-09-19T13:38:23;17.27;;;6.45;;
75044;SDS011;63614;56.026;35.960;2023-09-19T13:40:54;17.58;;;6.43;;
75044;SDS011;63614;56.026;35.960;2023-09-19T13:45:50;10.77;;;6.38;;
75044;SDS011;63614;56.026;35.960;2023-09-19T13:48:16;11.93;;;6.10;;
75044;SDS011;63614;56.026;35.960;2023-09-19T13:50:51;21.10;;;6.40;;
75044;SDS011;63614;56.026;35.960;2023-09-19T13:53:26;13.10;;;6.22;;
75044;SDS011;63614;56.026;35.960;2023-09-19T13:55:52;11.52;;;6.82;;
75044;SDS011;63614;56.026;35.960;2023-09-19T13:58:18;9.55;;;6.38;;
75044;SDS011;63614;56.026;35.960;2023-09-19T14:00:44;13.50;;;6.50;;
75044;SDS011;63614;56.026;35.960;2023-09-19T14:03:16;14.70;;;6.35;;
75044;SDS011;63614;56.026;35.960;2023-09-19T14:05:43;12.60;;;6.00;;
75044;SDS011;63614;56.026;35.960;2023-09-19T14:08:09;10.73;;;6.38;;
75044;SDS011;63614;56.026;35.960;2023-09-19T14:10:38;16.67;;;6.32;;
75044;SDS011;63614;56.026;35.960;2023-09-19T14:13:07;12.77;;;6.65;;
75044;SDS011;63614;56.026;35.960;2023-09-19T14:15:36;20.08;;;6.55;;
75044;SDS011;63614;56.026;35.960;2023-09-19T14:18:04;13.20;;;6.40;;
75044;SDS011;63614;56.026;35.960;2023-09-19T14:20:30;11.90;;;6.30;;
75044;SDS011;63614;56.026;35.960;2023-09-19T14:23:03;21.23;;;6.75;;
75044;SDS011;63614;56.026;35.960;2023-09-19T14:27:56;16.13;;;6.60;;
75044;SDS011;63614;56.026;35.960;2023-09-19T14:30:22;10.93;;;6.85;;
75044;SDS011;63614;56.026;35.960;2023-09-19T14:32:49;22.35;;;6.38;;
75044;SDS011;63614;56.026;35.960;2023-09-19T14:35:15;15.20;;;6.80;;
75044;SDS011;63614;56.026;35.960;2023-09-19T14:37:42;14.93;;;7.20;;
75044;SDS011;63614;56.026;35.960;2023-09-19T14:40:11;17.65;;;6.65;;
75044;SDS011;63614;56.026;35.960;2023-09-19T14:42:38;20.02;;;6.93;;
75044;SDS011;63614;56.026;35.960;2023-09-19T14:45:05;17.95;;;6.63;;
75044;SDS011;63614;56.026;35.960;2023-09-19T14:47:35;17.70;;;7.57;;
75044;SDS011;63614;56.026;35.960;2023-09-19T14:50:02;12.80;;;6.97;;
75044;SDS011;63614;56.026;35.960;2023-09-19T14:52:35;15.75;;;6.85;;
75044;SDS011;63614;56.026;35.960;2023-09-19T14:55:02;17.65;;;7.38;;
75044;SDS011;63614;56.026;35.960;2023-09-19T14:57:29;12.73;;;6.20;;
75044;SDS011;63614;56.026;35.960;2023-09-19T14:59:55;12.57;;;6.50;;
75044;SDS011;63614;56.026;35.960;2023-09-19T15:02:21;13.75;;;6.70;;
75044;SDS011;63614;56.026;35.960;2023-09-19T15:04:47;14.55;;;6.70;;
75044;SDS011;63614;56.026;35.960;2023-09-19T15:07:13;12.43;;;6.70;;
75044;SDS011;63614;56.026;35.960;2023-09-19T15:09:43;15.93;;;6.53;;
75044;SDS011;63614;56.026;35.960;2023-09-19T15:12:09;12.77;;;6.88;;
75044;SDS011;63614;56.026;35.960;2023-09-19T15:14:40;11.98;;;7.20;;
75044;SDS011;63614;56.026;35.960;2023-09-19T15:17:09;16.85;;;7.00;;
75044;SDS011;63614;56.026;35.960;2023-09-19T15:19:35;12.52;;;7.22;;
75044;SDS011;63614;56.026;35.960;2023-09-19T15:22:03;9.45;;;6.57;;
75044;SDS011;63614;56.026;35.960;2023-09-19T15:24:29;16.48;;;7.13;;
75044;SDS011;63614;56.026;35.960;2023-09-19T15:26:55;14.77;;;7.05;;
75044;SDS011;63614;56.026;35.960;2023-09-19T15:29:21;18.42;;;6.97;;
75044;SDS011;63614;56.026;35.960;2023-09-19T15:31:47;17.60;;;6.85;;
75044;SDS011;63614;56.026;35.960;2023-09-19T15:34:13;14.10;;;6.70;;
75044;SDS011;63614;56.026;35.960;2023-09-19T15:36:41;11.65;;;6.80;;
75044;SDS011;63614;56.026;35.960;2023-09-19T15:39:07;18.45;;;7.15;;
75044;SDS011;63614;56.026;35.960;2023-09-19T15:41:40;16.95;;;7.05;;
75044;SDS011;63614;56.026;35.960;2023-09-19T15:44:11;18.92;;;6.93;;
75044;SDS011;63614;56.026;35.960;2023-09-19T15:46:41;28.63;;;7.75;;
75044;SDS011;63614;56.026;35.960;2023-09-19T15:49:08;9.52;;;6.80;;
75044;SDS011;63614;56.026;35.960;2023-09-19T15:51:34;14.07;;;7.25;;
75044;SDS011;63614;56.026;35.960;2023-09-19T15:54:08;15.38;;;7.18;;
75044;SDS011;63614;56.026;35.960;2023-09-19T15:56:35;12.10;;;7.47;;
75044;SDS011;63614;56.026;35.960;2023-09-19T15:59:01;13.77;;;7.13;;
75044;SDS011;63614;56.026;35.960;2023-09-19T16:01:28;16.43;;;7.60;;